Time;durP1;ratioP1;P1;durP2;ratioP2;P2;SDS_P1;SDS_P2;PMS_P1;PMS_P2;Temp;Humidity;BMP_temperature;BMP_pressure;BME280_temperature;BME280_humidity;BME280_pressure;Samples;Min_cycle;Max_cycle;Signal;HPM_P1;HPM_P2
2021/08/17 00:00:49;;;;;;;11.95;3.53;;;;;;;;;;5090087;28;20032;-79
2021/08/17 00:03:15;;;;;;;14.20;3.40;;;;;;;;;;5107162;28;20062;-79
2021/08/17 00:05:42;;;;;;;16.17;3.67;;;;;;;;;;5088959;28;20032;-80
2021/08/17 00:08:07;;;;;;;18.45;3.60;;;;;;;;;;5106929;28;20050;-79
2021/08/17 00:10:33;;;;;;;18.70;2.97;;;;;;;;;;5089749;28;20039;-79
2021/08/17 00:12:59;;;;;;;22.40;3.78;;;;;;;;;;5106598;28;20122;-79
2021/08/17 00:15:26;;;;;;;18.38;3.38;;;;;;;;;;5090621;28;20112;-79
2021/08/17 00:17:51;;;;;;;14.85;3.08;;;;;;;;;;5090504;28;20493;-79
2021/08/17 00:20:18;;;;;;;7.72;2.42;;;;;;;;;;5106888;28;20032;-79
2021/08/17 00:22:44;;;;;;;12.43;3.80;;;;;;;;;;5089834;28;20383;-79
2021/08/17 00:25:10;;;;;;;14.48;3.15;;;;;;;;;;5088144;28;20100;-79
2021/08/17 00:27:36;;;;;;;12.32;2.92;;;;;;;;;;5089336;28;20098;-79
2021/08/17 00:30:03;;;;;;;15.73;3.22;;;;;;;;;;5106396;28;20032;-79
2021/08/17 00:32:29;;;;;;;14.13;4.38;;;;;;;;;;5088433;28;20043;-79
2021/08/17 00:34:56;;;;;;;13.30;3.55;;;;;;;;;;5105284;28;20048;-79
2021/08/17 00:37:21;;;;;;;12.25;3.40;;;;;;;;;;5090616;28;20024;-79
2021/08/17 00:39:48;;;;;;;15.98;3.33;;;;;;;;;;5092723;28;20047;-79
2021/08/17 00:42:14;;;;;;;12.50;3.60;;;;;;;;;;5091911;28;20098;-79
2021/08/17 00:44:39;;;;;;;11.15;2.72;;;;;;;;;;5092662;28;20500;-79
2021/08/17 00:47:05;;;;;;;13.25;3.72;;;;;;;;;;5109444;28;20024;-79
2021/08/17 00:49:31;;;;;;;8.43;2.67;;;;;;;;;;5111231;28;20045;-79
2021/08/17 00:52:06;;;;;;;8.60;2.92;;;;;;;;;;5111883;28;20028;-79
2021/08/17 00:54:35;;;;;;;13.67;3.80;;;;;;;;;;5071312;28;20067;-78
2021/08/17 00:57:01;;;;;;;16.23;3.83;;;;;;;;;;5073869;28;20063;-80
2021/08/17 00:59:32;;;;;;;12.77;3.70;;;;;;;;;;5074433;28;20036;-79
2021/08/17 01:01:58;;;;;;;13.85;3.65;;;;;;;;;;5073729;28;20039;-79
2021/08/17 01:04:23;;;;;;;12.15;3.83;;;;;;;;;;5073557;28;20029;-79
2021/08/17 01:06:49;;;;;;;9.10;3.25;;;;;;;;;;5090239;28;20032;-79
2021/08/17 01:09:15;;;;;;;13.82;3.40;;;;;;;;;;5089683;28;20494;-79
2021/08/17 01:11:46;;;;;;;11.68;3.45;;;;;;;;;;5072597;28;20044;-79
2021/08/17 01:14:20;;;;;;;14.75;4.15;;;;;;;;;;5072428;28;20381;-79
2021/08/17 01:16:46;;;;;;;9.10;4.15;;;;;;;;;;5072284;28;20478;-79
2021/08/17 01:19:13;;;;;;;9.93;3.30;;;;;;;;;;5071671;28;20115;-79
2021/08/17 01:21:39;;;;;;;12.23;3.50;;;;;;;;;;5072516;28;20078;-78
2021/08/17 01:24:05;;;;;;;14.65;3.50;;;;;;;;;;5109153;28;20036;-79
2021/08/17 01:26:31;;;;;;;18.40;4.38;;;;;;;;;;5092979;28;20036;-79
2021/08/17 01:28:57;;;;;;;12.35;3.55;;;;;;;;;;5109846;28;20028;-79
2021/08/17 01:31:24;;;;;;;15.45;4.10;;;;;;;;;;5093366;28;20032;-79
2021/08/17 01:33:51;;;;;;;13.98;3.53;;;;;;;;;;5108780;28;20054;-79
2021/08/17 01:36:16;;;;;;;18.85;3.97;;;;;;;;;;5106590;28;20046;-78
2021/08/17 01:38:49;;;;;;;12.90;4.20;;;;;;;;;;5089317;28;20040;-78
2021/08/17 01:41:15;;;;;;;9.40;3.50;;;;;;;;;;5090520;28;20056;-79
2021/08/17 01:43:44;;;;;;;13.43;4.03;;;;;;;;;;5106993;28;20036;-79
2021/08/17 01:46:10;;;;;;;12.10;3.83;;;;;;;;;;5093040;28;20036;-79
2021/08/17 01:48:38;;;;;;;12.00;3.80;;;;;;;;;;5090178;28;20096;-79
2021/08/17 01:51:05;;;;;;;14.02;4.22;;;;;;;;;;5107315;28;20044;-79
2021/08/17 01:53:32;;;;;;;13.50;4.15;;;;;;;;;;5106202;28;20387;-79
2021/08/17 01:56:24;;;;;;;12.93;4.43;;;;;;;;;;5090470;28;20039;-79
2021/08/17 01:58:49;;;;;;;11.95;3.58;;;;;;;;;;5088725;28;20044;-78
2021/08/17 02:01:15;;;;;;;11.10;3.92;;;;;;;;;;5090077;28;20051;-79
2021/08/17 02:03:41;;;;;;;14.90;4.43;;;;;;;;;;5090296;28;20024;-79
2021/08/17 02:06:07;;;;;;;17.20;4.20;;;;;;;;;;5089754;28;20092;-79
2021/08/17 02:08:33;;;;;;;22.25;4.30;;;;;;;;;;5106293;28;20028;-79
2021/08/17 02:10:59;;;;;;;13.02;4.13;;;;;;;;;;5088470;28;20036;-79
2021/08/17 02:13:27;;;;;;;16.95;3.47;;;;;;;;;;5107431;28;20594;-79
2021/08/17 02:15:52;;;;;;;13.48;3.58;;;;;;;;;;5108830;28;20036;-79
2021/08/17 02:18:18;;;;;;;10.80;3.63;;;;;;;;;;5105895;28;20032;-79
2021/08/17 02:20:45;;;;;;;17.73;3.45;;;;;;;;;;5085859;28;20043;-79
2021/08/17 02:23:11;;;;;;;13.07;3.40;;;;;;;;;;5087505;28;20040;-79
2021/08/17 02:25:36;;;;;;;13.93;4.28;;;;;;;;;;5070401;28;20040;-80
2021/08/17 02:28:02;;;;;;;16.33;4.30;;;;;;;;;;5071780;28;20486;-79
2021/08/17 02:30:27;;;;;;;15.55;3.50;;;;;;;;;;5071070;28;20036;-79
2021/08/17 02:32:53;;;;;;;18.15;3.65;;;;;;;;;;5070728;28;20474;-79
2021/08/17 02:35:19;;;;;;;16.50;3.55;;;;;;;;;;5086069;28;20102;-79
2021/08/17 02:37:45;;;;;;;14.45;3.70;;;;;;;;;;5086094;28;20036;-79
2021/08/17 02:40:11;;;;;;;18.58;3.65;;;;;;;;;;5084979;28;20032;-79
2021/08/17 02:42:37;;;;;;;18.90;4.57;;;;;;;;;;5082422;28;20032;-78
2021/08/17 02:45:04;;;;;;;13.60;3.83;;;;;;;;;;5066857;28;20043;-78
2021/08/17 02:47:30;;;;;;;11.20;3.78;;;;;;;;;;5106036;28;20031;-78
2021/08/17 02:49:55;;;;;;;13.98;3.60;;;;;;;;;;5107194;28;20040;-78
2021/08/17 02:52:21;;;;;;;9.98;3.45;;;;;;;;;;5107460;28;20069;-79
2021/08/17 02:54:49;;;;;;;18.20;3.97;;;;;;;;;;5123896;28;20130;-79
2021/08/17 02:57:14;;;;;;;13.27;3.55;;;;;;;;;;5106320;28;20040;-79
2021/08/17 02:59:40;;;;;;;15.57;4.20;;;;;;;;;;5105448;28;20039;-79
2021/08/17 03:02:06;;;;;;;18.15;5.15;;;;;;;;;;5085375;28;20048;-79
2021/08/17 03:04:31;;;;;;;21.40;4.25;;;;;;;;;;5066367;28;20154;-79
2021/08/17 03:06:57;;;;;;;10.43;3.22;;;;;;;;;;5066390;28;20033;-78
2021/08/17 03:09:23;;;;;;;12.27;3.80;;;;;;;;;;5066284;28;20037;-78
2021/08/17 03:11:48;;;;;;;12.35;3.92;;;;;;;;;;5065959;28;20025;-78
2021/08/17 03:14:14;;;;;;;19.05;4.35;;;;;;;;;;5083495;28;20059;-78
2021/08/17 03:16:39;;;;;;;14.27;3.35;;;;;;;;;;5082467;28;20044;-78
2021/08/17 03:19:05;;;;;;;13.93;3.70;;;;;;;;;;5083641;28;20058;-78
2021/08/17 03:21:31;;;;;;;21.17;4.05;;;;;;;;;;5082658;28;20037;-78
2021/08/17 03:23:56;;;;;;;17.52;4.05;;;;;;;;;;5081043;28;20061;-78
2021/08/17 03:26:21;;;;;;;26.15;4.00;;;;;;;;;;5107178;28;20080;-78
2021/08/17 03:28:47;;;;;;;17.33;3.90;;;;;;;;;;5106761;28;20495;-79
2021/08/17 03:31:12;;;;;;;13.25;3.25;;;;;;;;;;5106859;28;20092;-78
2021/08/17 03:33:38;;;;;;;21.52;4.32;;;;;;;;;;5124908;28;20283;-79
2021/08/17 03:36:06;;;;;;;15.50;3.95;;;;;;;;;;5124173;28;20035;-78
2021/08/17 03:38:33;;;;;;;17.67;3.60;;;;;;;;;;5073142;28;20050;-79
2021/08/17 03:40:58;;;;;;;19.02;3.92;;;;;;;;;;5067380;28;20036;-79
2021/08/17 03:43:25;;;;;;;12.40;3.50;;;;;;;;;;5067094;28;20033;-79
2021/08/17 03:45:51;;;;;;;19.17;4.15;;;;;;;;;;5066975;28;20086;-79
2021/08/17 03:48:17;;;;;;;19.38;4.82;;;;;;;;;;5067602;28;20040;-78
2021/08/17 03:50:43;;;;;;;14.68;3.83;;;;;;;;;;5069033;28;20040;-79
2021/08/17 03:53:09;;;;;;;18.85;3.97;;;;;;;;;;5068906;28;20043;-79
2021/08/17 03:55:34;;;;;;;16.05;3.47;;;;;;;;;;5101495;28;20038;-79
2021/08/17 03:58:00;;;;;;;16.58;4.18;;;;;;;;;;5088317;28;20036;-79
2021/08/17 04:00:27;;;;;;;12.43;3.40;;;;;;;;;;5119044;28;20035;-78
2021/08/17 04:02:54;;;;;;;17.90;3.53;;;;;;;;;;5127364;28;20027;-79
2021/08/17 04:05:19;;;;;;;18.77;4.70;;;;;;;;;;5110397;28;20020;-79
2021/08/17 04:07:46;;;;;;;12.65;3.55;;;;;;;;;;5110498;28;20031;-79
2021/08/17 04:10:12;;;;;;;17.67;4.38;;;;;;;;;;5104966;28;20066;-79
2021/08/17 04:12:37;;;;;;;16.80;4.20;;;;;;;;;;5107095;28;20050;-79
2021/08/17 04:15:05;;;;;;;19.83;3.85;;;;;;;;;;5113113;28;20491;-79
2021/08/17 04:17:30;;;;;;;12.48;3.58;;;;;;;;;;5106124;28;20035;-79
2021/08/17 04:19:56;;;;;;;12.55;3.50;;;;;;;;;;5104789;28;20036;-79
2021/08/17 04:22:22;;;;;;;20.80;4.80;;;;;;;;;;5104255;28;20100;-79
2021/08/17 04:24:48;;;;;;;17.30;4.05;;;;;;;;;;5077396;28;20044;-79
2021/08/17 04:27:14;;;;;;;24.73;4.20;;;;;;;;;;5079426;28;20045;-79
2021/08/17 04:29:39;;;;;;;16.60;3.97;;;;;;;;;;5064327;28;20033;-79
2021/08/17 04:32:06;;;;;;;20.25;4.15;;;;;;;;;;5064101;28;20134;-79
2021/08/17 04:34:31;;;;;;;22.60;4.25;;;;;;;;;;5080887;28;20048;-79
2021/08/17 04:36:57;;;;;;;15.52;4.00;;;;;;;;;;5063824;28;20386;-79
2021/08/17 04:39:22;;;;;;;15.98;4.43;;;;;;;;;;5081604;28;20059;-79
2021/08/17 04:41:48;;;;;;;16.95;4.20;;;;;;;;;;5082040;28;20062;-79
2021/08/17 04:44:14;;;;;;;15.55;4.05;;;;;;;;;;5080716;28;20068;-79
2021/08/17 04:46:39;;;;;;;14.38;4.00;;;;;;;;;;5063448;28;20028;-80
2021/08/17 04:49:07;;;;;;;15.73;4.55;;;;;;;;;;5080721;28;20494;-79
2021/08/17 04:51:32;;;;;;;26.15;4.45;;;;;;;;;;5076707;28;20040;-79
2021/08/17 04:53:57;;;;;;;12.10;3.78;;;;;;;;;;5083511;28;20500;-79
2021/08/17 04:56:23;;;;;;;17.48;3.75;;;;;;;;;;5100584;28;20043;-79
2021/08/17 04:58:48;;;;;;;19.92;4.90;;;;;;;;;;5100522;28;20086;-79
2021/08/17 05:01:15;;;;;;;14.18;3.95;;;;;;;;;;5101703;28;20102;-79
2021/08/17 05:03:40;;;;;;;14.57;3.30;;;;;;;;;;5089938;28;20028;-79
2021/08/17 05:06:07;;;;;;;14.77;3.53;;;;;;;;;;5093662;28;20046;-79
2021/08/17 05:08:33;;;;;;;14.00;3.97;;;;;;;;;;5109235;28;20036;-79
2021/08/17 05:10:59;;;;;;;12.82;3.90;;;;;;;;;;5109957;28;20508;-79
2021/08/17 05:13:25;;;;;;;16.90;4.30;;;;;;;;;;5093087;28;20039;-79
2021/08/17 05:15:50;;;;;;;11.45;3.63;;;;;;;;;;5085098;28;20038;-80
2021/08/17 05:18:16;;;;;;;10.32;3.53;;;;;;;;;;5099479;28;20055;-79
2021/08/17 05:20:43;;;;;;;17.45;4.43;;;;;;;;;;5082408;28;20500;-79
2021/08/17 05:23:08;;;;;;;18.95;4.32;;;;;;;;;;5081775;28;20097;-79
2021/08/17 05:25:33;;;;;;;16.98;3.88;;;;;;;;;;5062873;28;20453;-80
2021/08/17 05:27:59;;;;;;;17.60;4.10;;;;;;;;;;5062270;28;20123;-80
2021/08/17 05:30:24;;;;;;;16.73;4.03;;;;;;;;;;5079859;28;20123;-79
2021/08/17 05:32:51;;;;;;;16.17;3.83;;;;;;;;;;5079594;28;20037;-80
2021/08/17 05:35:17;;;;;;;12.02;3.50;;;;;;;;;;5061970;28;20049;-80
2021/08/17 05:37:42;;;;;;;8.68;3.60;;;;;;;;;;5078310;28;20501;-80
2021/08/17 05:40:08;;;;;;;18.55;4.35;;;;;;;;;;5080500;28;20509;-79
2021/08/17 05:42:34;;;;;;;17.70;4.32;;;;;;;;;;5062675;28;20120;-79
2021/08/17 05:44:59;;;;;;;10.38;4.05;;;;;;;;;;5062440;28;20028;-79
2021/08/17 05:47:25;;;;;;;11.93;3.50;;;;;;;;;;5078892;28;20036;-80
2021/08/17 05:49:51;;;;;;;19.40;3.70;;;;;;;;;;5078345;28;20020;-80
2021/08/17 05:52:17;;;;;;;15.35;3.97;;;;;;;;;;5061968;28;20055;-79
2021/08/17 05:54:42;;;;;;;13.68;3.70;;;;;;;;;;5078895;28;20040;-79
2021/08/17 05:57:08;;;;;;;16.50;4.18;;;;;;;;;;5061574;28;20102;-79
2021/08/17 05:59:34;;;;;;;14.57;3.55;;;;;;;;;;5067247;28;20504;-79
2021/08/17 06:02:03;;;;;;;13.65;3.30;;;;;;;;;;5102393;28;20177;-80
2021/08/17 06:04:29;;;;;;;15.18;3.38;;;;;;;;;;5108904;28;20046;-79
2021/08/17 06:06:54;;;;;;;16.92;3.85;;;;;;;;;;5112343;28;20036;-79
2021/08/17 06:09:20;;;;;;;11.15;3.53;;;;;;;;;;5095319;28;20036;-79
2021/08/17 06:11:47;;;;;;;14.05;3.40;;;;;;;;;;5095442;28;20478;-79
2021/08/17 06:14:13;;;;;;;22.35;4.45;;;;;;;;;;5093997;28;20126;-79
2021/08/17 06:16:39;;;;;;;11.57;3.50;;;;;;;;;;5091788;28;20035;-79
2021/08/17 06:19:05;;;;;;;11.82;3.05;;;;;;;;;;5091715;28;20105;-79
2021/08/17 06:21:34;;;;;;;23.90;3.63;;;;;;;;;;5106621;28;20478;-80
2021/08/17 06:24:00;;;;;;;13.00;3.22;;;;;;;;;;5092336;28;20040;-79
2021/08/17 06:26:26;;;;;;;21.10;3.72;;;;;;;;;;5086708;28;20041;-79
2021/08/17 06:28:51;;;;;;;16.20;3.95;;;;;;;;;;5088729;28;20051;-79
2021/08/17 06:31:23;;;;;;;9.73;3.42;;;;;;;;;;5130717;28;20032;-79
2021/08/17 06:33:53;;;;;;;14.77;3.35;;;;;;;;;;5112458;28;20051;-79
2021/08/17 06:36:19;;;;;;;14.70;4.28;;;;;;;;;;5127597;28;20040;-79
2021/08/17 06:38:45;;;;;;;16.02;4.03;;;;;;;;;;5128846;28;20040;-79
2021/08/17 06:41:10;;;;;;;16.58;5.63;;;;;;;;;;5129118;28;20050;-79
2021/08/17 06:43:36;;;;;;;14.93;3.88;;;;;;;;;;5127142;28;20040;-79
2021/08/17 06:46:03;;;;;;;23.55;4.20;;;;;;;;;;5109326;28;20031;-79
2021/08/17 06:48:28;;;;;;;15.90;4.07;;;;;;;;;;5108805;28;20036;-79
2021/08/17 06:50:54;;;;;;;17.80;3.88;;;;;;;;;;5126445;28;20050;-79
2021/08/17 06:53:19;;;;;;;15.40;4.43;;;;;;;;;;5124052;28;20035;-79
2021/08/17 06:55:45;;;;;;;16.95;3.50;;;;;;;;;;5089712;28;20095;-79
2021/08/17 06:58:14;;;;;;;17.25;4.90;;;;;;;;;;5088408;28;20039;-79
2021/08/17 07:00:41;;;;;;;11.18;3.42;;;;;;;;;;5104787;28;20455;-78
2021/08/17 07:03:07;;;;;;;17.58;4.22;;;;;;;;;;5086919;28;20043;-79
2021/08/17 07:05:37;;;;;;;17.17;4.68;;;;;;;;;;5085763;28;20036;-78
2021/08/17 07:08:04;;;;;;;22.23;4.50;;;;;;;;;;5085986;28;20020;-78
2021/08/17 07:10:30;;;;;;;11.27;4.18;;;;;;;;;;5103737;28;20059;-79
2021/08/17 07:12:57;;;;;;;19.23;5.28;;;;;;;;;;5085586;28;20505;-79
2021/08/17 07:15:22;;;;;;;15.93;4.25;;;;;;;;;;5085985;28;20064;-78
2021/08/17 07:17:48;;;;;;;11.82;3.80;;;;;;;;;;5088661;28;20394;-79
2021/08/17 07:20:14;;;;;;;11.88;4.15;;;;;;;;;;5089118;28;20047;-78
2021/08/17 07:22:40;;;;;;;16.25;4.97;;;;;;;;;;5085882;28;20051;-79
2021/08/17 07:25:06;;;;;;;15.85;4.68;;;;;;;;;;5068616;28;20033;-79
2021/08/17 07:27:32;;;;;;;15.95;4.13;;;;;;;;;;5069047;28;20074;-78
2021/08/17 07:29:57;;;;;;;13.40;4.38;;;;;;;;;;5095419;28;20039;-79
2021/08/17 07:32:25;;;;;;;18.83;4.10;;;;;;;;;;5105874;28;20048;-79
2021/08/17 07:34:50;;;;;;;17.85;4.55;;;;;;;;;;5106531;28;20111;-79
2021/08/17 07:37:16;;;;;;;13.05;3.70;;;;;;;;;;5089785;28;20066;-79
2021/08/17 07:39:41;;;;;;;17.67;5.13;;;;;;;;;;5088887;28;20036;-79
2021/08/17 07:42:07;;;;;;;16.92;4.57;;;;;;;;;;5108219;28;20045;-79
2021/08/17 07:44:33;;;;;;;14.27;3.78;;;;;;;;;;5088015;28;20089;-79
2021/08/17 07:46:58;;;;;;;16.30;4.45;;;;;;;;;;5086981;28;20031;-79
2021/08/17 07:49:24;;;;;;;20.55;6.15;;;;;;;;;;5089255;28;20028;-78
2021/08/17 07:51:49;;;;;;;15.18;4.50;;;;;;;;;;5107313;28;20062;-79
2021/08/17 07:54:15;;;;;;;17.85;4.03;;;;;;;;;;5124560;28;20035;-79
2021/08/17 07:56:41;;;;;;;10.80;3.58;;;;;;;;;;5112064;28;20126;-79
2021/08/17 07:59:06;;;;;;;12.05;3.88;;;;;;;;;;5111017;28;20081;-79
2021/08/17 08:01:32;;;;;;;18.30;4.22;;;;;;;;;;5127991;28;20031;-79
2021/08/17 08:04:00;;;;;;;11.23;3.90;;;;;;;;;;5127397;28;20079;-79
2021/08/17 08:06:26;;;;;;;11.98;4.25;;;;;;;;;;5109555;28;20072;-79
2021/08/17 08:08:51;;;;;;;10.70;4.10;;;;;;;;;;5127198;28;20046;-79
2021/08/17 08:11:17;;;;;;;10.70;3.95;;;;;;;;;;5110299;28;20397;-79
2021/08/17 08:13:43;;;;;;;16.55;4.70;;;;;;;;;;5127532;28;20109;-79
2021/08/17 08:16:08;;;;;;;15.10;4.28;;;;;;;;;;5110949;28;20036;-79
2021/08/17 08:18:34;;;;;;;14.68;4.38;;;;;;;;;;5112150;28;20039;-79
2021/08/17 08:20:59;;;;;;;11.07;4.40;;;;;;;;;;5112619;28;20034;-79
2021/08/17 08:23:24;;;;;;;13.57;4.40;;;;;;;;;;5097647;28;20040;-78
2021/08/17 08:25:50;;;;;;;14.70;4.43;;;;;;;;;;5070239;28;20041;-79
2021/08/17 08:28:16;;;;;;;14.70;4.13;;;;;;;;;;5071673;28;20024;-79
2021/08/17 08:30:42;;;;;;;17.35;4.63;;;;;;;;;;5103369;28;20055;-80
2021/08/17 08:33:07;;;;;;;12.18;3.65;;;;;;;;;;5091970;28;20055;-79
2021/08/17 08:35:32;;;;;;;18.48;4.63;;;;;;;;;;5091814;28;20102;-79
2021/08/17 08:37:58;;;;;;;9.13;3.80;;;;;;;;;;5120821;28;20099;-79
2021/08/17 08:40:27;;;;;;;11.45;4.40;;;;;;;;;;5112915;28;20055;-79
2021/08/17 08:42:53;;;;;;;17.45;4.10;;;;;;;;;;5128774;28;20036;-79
2021/08/17 08:45:20;;;;;;;11.48;3.88;;;;;;;;;;5112274;28;20048;-79
2021/08/17 08:47:46;;;;;;;9.85;3.83;;;;;;;;;;5129518;28;20071;-79
2021/08/17 08:50:13;;;;;;;10.77;4.68;;;;;;;;;;5112160;28;20039;-79
2021/08/17 08:52:38;;;;;;;12.05;4.40;;;;;;;;;;5111817;28;20028;-79
2021/08/17 08:55:06;;;;;;;12.50;3.63;;;;;;;;;;5093406;28;20028;-79
2021/08/17 08:57:31;;;;;;;11.00;3.95;;;;;;;;;;5093273;28;20032;-79
2021/08/17 08:59:57;;;;;;;8.80;3.58;;;;;;;;;;5113325;28;20059;-79
2021/08/17 09:02:29;;;;;;;13.40;3.67;;;;;;;;;;5095756;28;20130;-79
2021/08/17 09:04:57;;;;;;;13.40;4.50;;;;;;;;;;5095442;28;20400;-79
2021/08/17 09:07:38;;;;;;;15.05;4.57;;;;;;;;;;5095979;28;20020;-79
2021/08/17 09:10:07;;;;;;;17.50;5.22;;;;;;;;;;5095178;28;20036;-79
2021/08/17 09:12:34;;;;;;;12.40;4.82;;;;;;;;;;5095096;28;20031;-79
2021/08/17 09:15:14;;;;;;;11.57;4.63;;;;;;;;;;5095343;28;20043;-79
2021/08/17 09:17:43;;;;;;;12.55;5.13;;;;;;;;;;5112230;28;20040;-79
2021/08/17 09:20:14;;;;;;;14.32;4.57;;;;;;;;;;5095356;28;20034;-79
2021/08/17 09:22:42;;;;;;;10.82;4.82;;;;;;;;;;5095180;28;20051;-79
2021/08/17 09:25:10;;;;;;;15.40;4.93;;;;;;;;;;5112284;28;20489;-79
2021/08/17 09:27:37;;;;;;;10.50;4.65;;;;;;;;;;5094979;28;20294;-80
2021/08/17 09:30:12;;;;;;;13.25;5.05;;;;;;;;;;5096934;28;20040;-79
2021/08/17 09:32:54;;;;;;;12.03;5.37;;;;;;;;;;5083902;28;20079;-80
2021/08/17 09:35:21;;;;;;;18.35;4.85;;;;;;;;;;5061956;28;20123;-80
2021/08/17 09:38:04;;;;;;;12.43;5.05;;;;;;;;;;5061619;28;20044;-80
2021/08/17 09:40:29;;;;;;;13.45;5.15;;;;;;;;;;5062447;28;20070;-80
2021/08/17 09:42:55;;;;;;;12.40;6.22;;;;;;;;;;5078869;28;20029;-80
2021/08/17 09:45:20;;;;;;;11.40;4.90;;;;;;;;;;5078511;28;20549;-80
2021/08/17 09:47:53;;;;;;;17.25;6.18;;;;;;;;;;5080029;28;20659;-80
2021/08/17 09:50:30;;;;;;;13.02;6.43;;;;;;;;;;5078781;28;20032;-80
2021/08/17 09:53:13;;;;;;;11.10;5.20;;;;;;;;;;5062108;28;20041;-80
2021/08/17 09:55:46;;;;;;;13.45;5.80;;;;;;;;;;5097586;28;20438;-80
2021/08/17 09:58:33;;;;;;;17.50;5.25;;;;;;;;;;5081574;28;20039;-80
2021/08/17 10:01:05;;;;;;;10.95;5.35;;;;;;;;;;5081987;28;20043;-80
2021/08/17 10:03:31;;;;;;;10.40;5.93;;;;;;;;;;5099563;28;20036;-80
2021/08/17 10:05:57;;;;;;;10.68;5.75;;;;;;;;;;5099390;28;20032;-80
2021/08/17 10:08:25;;;;;;;11.88;5.95;;;;;;;;;;5083481;28;20028;-80
2021/08/17 10:10:52;;;;;;;15.75;6.43;;;;;;;;;;5082468;28;20121;-80
2021/08/17 10:13:23;;;;;;;10.60;5.93;;;;;;;;;;5082482;28;20396;-80
2021/08/17 10:15:50;;;;;;;8.30;5.90;;;;;;;;;;5098950;28;20440;-80
2021/08/17 10:18:19;;;;;;;13.38;7.10;;;;;;;;;;5081555;28;20089;-80
2021/08/17 10:20:46;;;;;;;14.40;6.78;;;;;;;;;;5099178;28;20480;-80
2021/08/17 10:23:19;;;;;;;13.88;7.32;;;;;;;;;;5105104;28;20045;-80
2021/08/17 10:25:58;;;;;;;11.18;7.28;;;;;;;;;;5119189;28;20031;-81
2021/08/17 10:28:26;;;;;;;14.13;7.30;;;;;;;;;;5119154;28;20091;-80
2021/08/17 10:30:52;;;;;;;12.65;6.90;;;;;;;;;;5084084;28;20095;-80
2021/08/17 10:33:42;;;;;;;11.10;8.00;;;;;;;;;;5062161;28;20080;-80
2021/08/17 10:36:10;;;;;;;14.55;7.43;;;;;;;;;;5061626;28;20049;-80
2021/08/17 10:38:37;;;;;;;12.35;6.90;;;;;;;;;;5062731;28;20497;-80
2021/08/17 10:41:06;;;;;;;13.30;7.60;;;;;;;;;;5066148;28;20054;-80
2021/08/17 10:43:32;;;;;;;11.18;7.13;;;;;;;;;;5082041;28;20500;-80
2021/08/17 10:46:09;;;;;;;17.98;8.90;;;;;;;;;;5098940;28;20039;-80
2021/08/17 10:48:50;;;;;;;11.18;7.28;;;;;;;;;;5099028;28;20028;-80
2021/08/17 10:51:18;;;;;;;15.90;7.50;;;;;;;;;;5080852;28;20039;-80
2021/08/17 10:53:45;;;;;;;15.73;8.70;;;;;;;;;;5098054;28;20040;-80
2021/08/17 10:56:16;;;;;;;13.55;7.40;;;;;;;;;;5098717;28;20020;-80
2021/08/17 10:58:48;;;;;;;18.40;8.68;;;;;;;;;;5098160;28;20508;-80
2021/08/17 11:01:39;;;;;;;13.88;8.23;;;;;;;;;;5081206;28;20096;-80
2021/08/17 11:04:08;;;;;;;15.90;9.32;;;;;;;;;;5082502;28;20050;-80
2021/08/17 11:06:50;;;;;;;17.10;9.23;;;;;;;;;;5099246;28;20032;-80
2021/08/17 11:09:30;;;;;;;14.73;8.98;;;;;;;;;;5081744;28;20035;-80
2021/08/17 11:12:03;;;;;;;14.38;9.13;;;;;;;;;;5078126;28;20040;-80
2021/08/17 11:14:30;;;;;;;16.33;8.98;;;;;;;;;;5061404;28;20434;-80
2021/08/17 11:17:12;;;;;;;12.05;8.32;;;;;;;;;;5061376;28;20043;-80
2021/08/17 11:19:47;;;;;;;13.23;8.85;;;;;;;;;;5060143;28;20028;-80
2021/08/17 11:22:36;;;;;;;16.55;8.68;;;;;;;;;;5077754;28;20455;-80
2021/08/17 11:25:04;;;;;;;13.80;8.52;;;;;;;;;;5088942;28;20031;-80
2021/08/17 11:27:36;;;;;;;16.27;8.75;;;;;;;;;;5101378;28;20043;-81
2021/08/17 11:30:05;;;;;;;12.07;7.85;;;;;;;;;;5101532;28;20046;-80
2021/08/17 11:32:39;;;;;;;12.75;8.68;;;;;;;;;;5101591;28;20039;-80
2021/08/17 11:35:11;;;;;;;12.80;8.18;;;;;;;;;;5101010;28;20054;-80
2021/08/17 11:37:43;;;;;;;14.45;7.85;;;;;;;;;;5117840;28;20039;-80
2021/08/17 11:40:11;;;;;;;12.82;8.05;;;;;;;;;;5117517;28;20440;-80
2021/08/17 11:42:40;;;;;;;15.32;7.95;;;;;;;;;;5117715;28;20039;-80
2021/08/17 11:45:14;;;;;;;12.85;7.75;;;;;;;;;;5117961;28;20069;-80
2021/08/17 11:47:42;;;;;;;11.85;7.55;;;;;;;;;;5077055;28;20033;-80
2021/08/17 11:50:10;;;;;;;13.82;7.75;;;;;;;;;;5077471;28;20028;-80
2021/08/17 11:52:44;;;;;;;11.85;7.80;;;;;;;;;;5076969;28;20083;-80
2021/08/17 11:55:18;;;;;;;12.05;8.02;;;;;;;;;;5083452;28;20031;-80
2021/08/17 11:57:43;;;;;;;15.20;8.48;;;;;;;;;;5100527;28;20494;-80
2021/08/17 12:00:20;;;;;;;11.25;7.53;;;;;;;;;;5117330;28;20140;-80
2021/08/17 12:02:56;;;;;;;12.95;8.43;;;;;;;;;;5086441;28;20121;-80
2021/08/17 12:05:27;;;;;;;11.52;8.05;;;;;;;;;;5079586;28;20036;-80
2021/08/17 12:07:54;;;;;;;12.90;8.57;;;;;;;;;;5079894;28;20032;-80
2021/08/17 12:10:24;;;;;;;15.05;10.07;;;;;;;;;;5079866;28;20028;-80
2021/08/17 12:12:59;;;;;;;15.63;9.50;;;;;;;;;;5081172;28;20028;-80
2021/08/17 12:15:38;;;;;;;12.25;8.30;;;;;;;;;;5081682;28;20509;-80
2021/08/17 12:18:17;;;;;;;13.52;9.57;;;;;;;;;;5079944;28;20093;-80
2021/08/17 12:20:48;;;;;;;14.23;9.98;;;;;;;;;;5097240;28;20036;-80
2021/08/17 12:23:16;;;;;;;14.73;9.20;;;;;;;;;;5080536;28;20040;-80
2021/08/17 12:25:42;;;;;;;21.98;10.02;;;;;;;;;;5084640;28;20478;-80
2021/08/17 12:28:08;;;;;;;16.52;9.43;;;;;;;;;;5059335;28;20039;-79
2021/08/17 12:30:33;;;;;;;16.65;9.93;;;;;;;;;;5059549;28;20085;-80
2021/08/17 12:33:01;;;;;;;15.40;9.52;;;;;;;;;;5061256;28;20044;-80
2021/08/17 12:35:31;;;;;;;15.77;9.35;;;;;;;;;;5063662;28;20071;-80
2021/08/17 12:38:16;;;;;;;25.33;10.55;;;;;;;;;;5063771;28;20124;-80
2021/08/17 12:40:53;;;;;;;13.75;9.57;;;;;;;;;;5079577;28;20041;-80
2021/08/17 12:43:26;;;;;;;22.00;9.90;;;;;;;;;;5063292;28;20034;-79
2021/08/17 12:45:53;;;;;;;15.90;9.60;;;;;;;;;;5080812;28;20032;-80
2021/08/17 12:48:20;;;;;;;14.98;9.07;;;;;;;;;;5064076;28;20043;-80
2021/08/17 12:50:47;;;;;;;17.95;10.02;;;;;;;;;;5063554;28;20032;-80
2021/08/17 12:53:26;;;;;;;15.90;9.65;;;;;;;;;;5085711;28;20039;-80
2021/08/17 12:55:54;;;;;;;17.65;9.90;;;;;;;;;;5100213;28;20481;-80
2021/08/17 12:58:20;;;;;;;21.25;10.57;;;;;;;;;;5083801;28;20088;-80
2021/08/17 13:00:46;;;;;;;15.48;9.40;;;;;;;;;;5082996;28;20043;-79
2021/08/17 13:03:13;;;;;;;16.33;9.23;;;;;;;;;;5099937;28;20040;-80
2021/08/17 13:05:40;;;;;;;25.88;10.38;;;;;;;;;;5098814;28;20028;-80
2021/08/17 13:08:06;;;;;;;22.13;10.02;;;;;;;;;;5107353;28;20055;-79
2021/08/17 13:10:32;;;;;;;17.85;10.00;;;;;;;;;;5121434;28;20035;-80
2021/08/17 13:12:57;;;;;;;25.45;11.15;;;;;;;;;;5103645;28;20492;-79
2021/08/17 13:15:23;;;;;;;16.17;9.77;;;;;;;;;;5104006;28;20467;-79
2021/08/17 13:17:48;;;;;;;17.77;9.57;;;;;;;;;;5115170;28;20032;-79
2021/08/17 13:20:18;;;;;;;16.73;9.70;;;;;;;;;;5131866;28;20043;-80
2021/08/17 13:22:45;;;;;;;19.48;10.27;;;;;;;;;;5114841;28;20047;-79
2021/08/17 13:25:11;;;;;;;22.80;10.50;;;;;;;;;;5130981;28;20038;-79
2021/08/17 13:27:37;;;;;;;17.27;10.13;;;;;;;;;;5113712;28;20043;-80
2021/08/17 13:30:03;;;;;;;15.40;10.25;;;;;;;;;;5130473;28;20015;-79
2021/08/17 13:32:28;;;;;;;21.23;10.05;;;;;;;;;;5113734;28;20039;-79
2021/08/17 13:34:54;;;;;;;18.65;9.00;;;;;;;;;;5113143;28;20107;-79
2021/08/17 13:37:19;;;;;;;15.60;9.18;;;;;;;;;;5130975;28;20031;-79
2021/08/17 13:39:47;;;;;;;17.13;9.77;;;;;;;;;;5113167;28;20042;-79
2021/08/17 13:42:13;;;;;;;14.70;8.63;;;;;;;;;;5131898;28;20084;-79
2021/08/17 13:44:38;;;;;;;16.85;9.43;;;;;;;;;;5111234;28;20035;-79
2021/08/17 13:47:04;;;;;;;14.25;8.98;;;;;;;;;;5113731;28;20408;-79
2021/08/17 13:49:30;;;;;;;18.63;8.57;;;;;;;;;;5112253;28;20020;-79
2021/08/17 13:51:56;;;;;;;15.02;8.70;;;;;;;;;;5113967;28;20050;-79
2021/08/17 13:54:21;;;;;;;13.85;9.10;;;;;;;;;;5128521;28;20031;-79
2021/08/17 13:56:47;;;;;;;17.08;9.00;;;;;;;;;;5129902;28;20455;-79
2021/08/17 13:59:12;;;;;;;15.88;8.95;;;;;;;;;;5131942;28;20055;-80
2021/08/17 14:01:38;;;;;;;15.52;8.93;;;;;;;;;;5131598;28;20036;-79
2021/08/17 14:04:06;;;;;;;14.90;9.52;;;;;;;;;;5117488;28;20031;-79
2021/08/17 14:06:32;;;;;;;12.57;8.63;;;;;;;;;;5134440;28;20035;-80
2021/08/17 14:08:58;;;;;;;15.52;9.20;;;;;;;;;;5117308;28;20027;-79
2021/08/17 14:11:23;;;;;;;14.15;8.57;;;;;;;;;;5116961;28;20039;-79
2021/08/17 14:13:48;;;;;;;15.45;9.00;;;;;;;;;;5132735;28;20031;-79
2021/08/17 14:16:14;;;;;;;14.55;8.32;;;;;;;;;;5111922;28;20084;-79
2021/08/17 14:18:42;;;;;;;15.98;8.25;;;;;;;;;;5116574;28;20066;-79
2021/08/17 14:21:11;;;;;;;14.82;9.10;;;;;;;;;;5133037;28;20035;-79
2021/08/17 14:23:37;;;;;;;13.30;8.65;;;;;;;;;;5114628;28;20047;-79
2021/08/17 14:26:07;;;;;;;13.80;8.68;;;;;;;;;;5115485;28;20028;-79
2021/08/17 14:28:32;;;;;;;13.95;8.48;;;;;;;;;;5116341;28;20051;-79
2021/08/17 14:30:58;;;;;;;11.52;7.70;;;;;;;;;;5115774;28;20032;-79
2021/08/17 14:33:26;;;;;;;13.38;8.13;;;;;;;;;;5114377;28;20074;-79